createdAt,value
2023-02-11T00:01:41.291Z,84.40
2023-02-11T00:04:09.328Z,84.36
2023-02-11T00:06:37.370Z,84.28
2023-02-11T00:09:06.137Z,84.24
2023-02-11T00:11:34.835Z,84.18
2023-02-11T00:14:07.803Z,84.14
2023-02-11T00:16:36.004Z,84.08
2023-02-11T00:19:06.327Z,84.03
2023-02-11T00:21:34.464Z,83.95
2023-02-11T00:24:02.518Z,83.91
2023-02-11T00:26:35.383Z,83.86
2023-02-11T00:29:04.751Z,83.82
2023-02-11T00:31:33.857Z,83.76
2023-02-11T00:34:02.285Z,83.71
2023-02-11T00:36:31.317Z,83.62
2023-02-11T00:39:00.056Z,83.52
2023-02-11T00:41:29.263Z,83.48
2023-02-11T00:43:57.226Z,83.43
2023-02-11T00:46:25.310Z,83.34
2023-02-11T00:48:57.739Z,83.30
2023-02-11T00:51:27.803Z,83.22
2023-02-11T00:53:55.818Z,83.16
2023-02-11T00:56:24.656Z,83.10
2023-02-11T00:58:53.526Z,83.03
2023-02-11T01:01:21.634Z,82.95
2023-02-11T01:03:50.588Z,82.96
2023-02-11T01:06:20.252Z,82.94
2023-02-11T01:08:48.148Z,82.94
2023-02-11T01:11:19.460Z,82.91
2023-02-11T01:13:49.540Z,82.91
2023-02-11T01:16:18.932Z,82.91
2023-02-11T01:18:47.127Z,82.89
2023-02-11T01:21:15.173Z,82.87
2023-02-11T01:23:44.410Z,82.83
2023-02-11T01:26:13.824Z,82.81
2023-02-11T01:28:42.064Z,82.80
2023-02-11T01:31:10.163Z,82.71
2023-02-11T01:33:39.016Z,82.73
2023-02-11T01:36:08.290Z,82.62
2023-02-11T01:38:36.874Z,82.58
2023-02-11T01:41:09.974Z,82.53
2023-02-11T01:43:43.979Z,82.47
2023-02-11T01:46:38.544Z,82.48
2023-02-11T01:49:11.318Z,82.44
2023-02-11T01:51:44.128Z,82.36
2023-02-11T01:54:35.506Z,82.32
2023-02-11T01:57:27.892Z,82.24
2023-02-11T02:00:11.108Z,82.14
2023-02-11T02:03:05.153Z,82.04
2023-02-11T02:05:36.271Z,82.01
2023-02-11T02:08:29.788Z,81.89
2023-02-11T02:11:00.908Z,81.91
2023-02-11T02:13:31.553Z,81.78
2023-02-11T02:16:02.277Z,81.67
2023-02-11T02:19:11.067Z,81.69
2023-02-11T02:22:10.638Z,81.68
2023-02-11T02:24:47.137Z,81.59
2023-02-11T02:27:45.938Z,81.56
2023-02-11T02:30:35.498Z,81.54
2023-02-11T02:36:28.661Z,81.53
2023-02-11T02:39:07.721Z,81.53
2023-02-11T02:41:37.837Z,81.49
2023-02-11T02:44:08.439Z,81.47
2023-02-11T02:46:37.170Z,81.45
2023-02-11T02:49:12.334Z,81.40
2023-02-11T02:51:49.451Z,81.36
2023-02-11T02:54:46.912Z,81.32
2023-02-11T02:57:20.948Z,81.28
2023-02-11T02:59:49.109Z,81.28
2023-02-11T03:02:43.270Z,81.24
2023-02-11T03:05:18.830Z,81.21
2023-02-11T03:07:55.721Z,81.13
2023-02-11T03:10:34.377Z,81.04
2023-02-11T03:13:04.962Z,80.94
2023-02-11T03:15:39.266Z,80.87
2023-02-11T03:18:11.648Z,80.83
2023-02-11T03:20:43.951Z,80.80
2023-02-11T03:23:13.884Z,80.68
2023-02-11T03:26:05.565Z,80.51
2023-02-11T03:28:42.617Z,80.50
2023-02-11T03:31:37.340Z,80.47
2023-02-11T03:34:18.419Z,80.36
2023-02-11T03:36:54.020Z,80.32
2023-02-11T03:39:29.817Z,80.30
2023-02-11T03:42:00.427Z,80.22
2023-02-11T03:44:34.325Z,80.17
2023-02-11T03:47:05.795Z,80.08
2023-02-11T03:49:35.026Z,80.04
2023-02-11T03:52:05.763Z,79.97
2023-02-11T03:54:35.415Z,79.80
2023-02-11T03:57:03.497Z,79.79
2023-02-11T03:59:31.595Z,79.73
2023-02-11T04:02:50.929Z,79.77
2023-02-11T04:05:19.181Z,79.77
2023-02-11T04:07:48.500Z,79.66
2023-02-11T04:10:16.599Z,79.57
2023-02-11T04:12:44.595Z,79.47
2023-02-11T04:15:12.822Z,79.46
2023-02-11T04:17:41.984Z,79.39
2023-02-11T04:20:10.918Z,79.29
2023-02-11T04:22:39.007Z,79.26
2023-02-11T04:25:08.087Z,79.22
2023-02-11T04:27:37.144Z,79.19
2023-02-11T04:34:39.458Z,78.74
2023-02-11T04:37:07.467Z,78.85
2023-02-11T04:39:35.642Z,78.95
2023-02-11T04:42:03.674Z,79.00
2023-02-11T04:44:31.765Z,79.04
2023-02-11T04:46:59.715Z,79.02
2023-02-11T04:49:27.639Z,78.97
2023-02-11T04:51:55.731Z,78.97
2023-02-11T04:54:23.661Z,78.98
2023-02-11T04:56:51.592Z,79.00
2023-02-11T04:59:19.635Z,78.99
2023-02-11T05:01:47.582Z,78.99
2023-02-11T05:04:16.440Z,78.93
2023-02-11T05:06:44.328Z,78.86
2023-02-11T05:09:13.802Z,78.79
2023-02-11T05:11:42.174Z,78.67
2023-02-11T05:14:10.102Z,78.68
2023-02-11T05:16:38.342Z,78.65
2023-02-11T05:19:06.271Z,78.66
2023-02-11T05:21:34.322Z,78.60
2023-02-11T05:24:02.399Z,78.62
2023-02-11T05:26:30.278Z,78.58
2023-02-11T05:28:58.111Z,78.51
2023-02-11T05:31:26.065Z,78.41
2023-02-11T05:33:54.041Z,78.39
2023-02-11T05:36:22.167Z,78.38
2023-02-11T05:38:50.970Z,78.25
2023-02-11T05:41:19.454Z,78.24
2023-02-11T05:43:54.074Z,78.12
2023-02-11T05:46:22.074Z,78.12
2023-02-11T05:48:50.121Z,78.09
2023-02-11T05:51:18.023Z,78.10
2023-02-11T05:53:46.082Z,78.04
2023-02-11T05:56:14.711Z,77.98
2023-02-11T05:58:42.968Z,77.90
2023-02-11T06:01:10.843Z,77.91
2023-02-11T06:03:39.025Z,77.92
2023-02-11T06:06:11.718Z,77.71
2023-02-11T06:08:40.214Z,77.71
2023-02-11T06:11:08.214Z,77.73
2023-02-11T06:13:36.443Z,77.66
2023-02-11T06:16:04.730Z,77.63
2023-02-11T06:18:33.679Z,77.55
2023-02-11T06:21:02.008Z,77.54
2023-02-11T06:23:30.582Z,77.49
2023-02-11T06:26:09.069Z,77.46
2023-02-11T06:28:39.321Z,77.36
2023-02-11T06:31:09.731Z,77.28
2023-02-11T06:33:38.261Z,77.29
2023-02-11T06:36:18.457Z,77.33
2023-02-11T06:38:47.162Z,77.27
2023-02-11T06:41:18.558Z,77.21
2023-02-11T06:43:46.995Z,77.17
2023-02-11T06:46:15.576Z,77.11
2023-02-11T06:48:44.980Z,77.19
2023-02-11T06:51:14.742Z,77.16
2023-02-11T06:53:45.664Z,77.11
2023-02-11T06:56:20.015Z,77.10
2023-02-11T06:58:48.675Z,76.96
2023-02-11T07:01:17.106Z,76.92
2023-02-11T07:03:47.083Z,77.02
2023-02-11T07:06:18.935Z,76.94
2023-02-11T07:08:48.367Z,76.93
2023-02-11T07:11:21.384Z,76.90
2023-02-11T07:13:50.678Z,76.87
2023-02-11T07:16:19.741Z,76.88
2023-02-11T07:18:48.527Z,76.86
2023-02-11T07:21:20.045Z,76.86
2023-02-11T07:23:48.787Z,76.89
2023-02-11T07:26:19.815Z,76.92
2023-02-11T07:28:47.811Z,76.86
2023-02-11T07:31:19.433Z,76.96
2023-02-11T07:33:47.484Z,77.01
2023-02-11T07:36:17.090Z,77.03
2023-02-11T07:38:46.157Z,77.08
2023-02-11T07:41:17.233Z,77.14
2023-02-11T07:43:45.621Z,77.17
2023-02-11T07:46:17.021Z,77.18
2023-02-11T07:48:45.064Z,77.24
2023-02-11T07:51:18.580Z,77.29
2023-02-11T07:53:47.189Z,77.40
2023-02-11T07:56:17.385Z,77.55
2023-02-11T07:58:45.711Z,77.73
2023-02-11T08:01:17.463Z,78.11
2023-02-11T08:03:45.869Z,78.25
2023-02-11T08:06:17.243Z,78.49
2023-02-11T08:08:45.157Z,78.86
2023-02-11T08:11:17.451Z,79.20
2023-02-11T08:13:45.514Z,79.70
2023-02-11T08:16:35.118Z,79.92
2023-02-11T08:19:06.706Z,80.28
2023-02-11T08:21:34.690Z,80.76
2023-02-11T08:24:03.534Z,80.97
2023-02-11T08:26:34.769Z,81.50
2023-02-11T08:29:08.340Z,81.81
2023-02-11T08:31:40.678Z,81.96
2023-02-11T08:34:11.511Z,82.09
2023-02-11T08:36:41.087Z,82.39
2023-02-11T08:39:21.406Z,82.73
2023-02-11T08:41:56.570Z,83.02
2023-02-11T08:44:24.877Z,83.14
2023-02-11T08:46:53.535Z,83.19
2023-02-11T08:49:22.448Z,83.40
2023-02-11T08:51:51.667Z,83.57
2023-02-11T08:54:20.697Z,83.96
2023-02-11T08:56:51.671Z,83.97
2023-02-11T08:59:19.767Z,83.92
2023-02-11T09:01:47.919Z,84.02
2023-02-11T09:04:16.262Z,84.24
2023-02-11T09:06:44.462Z,84.31
2023-02-11T09:09:14.218Z,84.65
2023-02-11T09:11:44.216Z,84.49
2023-02-11T09:14:20.929Z,84.69
2023-02-11T09:16:50.097Z,84.76
2023-02-11T09:19:18.834Z,84.83
2023-02-11T09:21:48.021Z,84.89
2023-02-11T09:24:16.435Z,84.92
2023-02-11T09:26:44.527Z,85.09
2023-02-11T09:29:12.596Z,84.99
2023-02-11T09:31:41.078Z,84.98
2023-02-11T09:34:11.197Z,84.94
2023-02-11T09:36:41.085Z,84.91
2023-02-11T09:39:17.139Z,84.95
2023-02-11T09:42:06.871Z,84.84
2023-02-11T09:44:36.681Z,84.74
2023-02-11T09:47:15.712Z,84.75
2023-02-11T09:49:47.047Z,84.83
2023-02-11T09:52:45.176Z,84.80
2023-02-11T09:55:30.423Z,84.78
2023-02-11T09:57:58.990Z,84.93
2023-02-11T10:00:27.125Z,84.93
2023-02-11T10:03:02.257Z,84.84
2023-02-11T10:05:43.286Z,84.94
2023-02-11T10:08:35.161Z,84.98
2023-02-11T10:11:22.624Z,85.01
2023-02-11T10:14:35.732Z,85.08
2023-02-11T10:17:30.499Z,85.15
2023-02-11T10:20:20.882Z,85.12
2023-02-11T10:22:53.494Z,85.27
2023-02-11T10:25:38.585Z,85.65
2023-02-11T10:28:19.349Z,85.72
2023-02-11T10:31:00.937Z,85.76
2023-02-11T10:33:53.857Z,85.76
2023-02-11T10:36:27.283Z,85.78
2023-02-11T10:38:59.738Z,85.99
2023-02-11T10:41:36.469Z,86.23
2023-02-11T10:44:07.018Z,86.21
2023-02-11T10:46:40.311Z,86.36
2023-02-11T10:49:08.453Z,86.38
2023-02-11T10:51:37.897Z,86.48
2023-02-11T10:54:13.320Z,86.42
2023-02-11T10:56:46.533Z,86.70
2023-02-11T10:59:31.479Z,86.71
2023-02-11T11:04:40.648Z,86.26
2023-02-11T11:07:15.167Z,86.61
2023-02-11T11:09:48.563Z,86.83
2023-02-11T11:12:28.829Z,87.05
2023-02-11T11:15:22.066Z,87.13
2023-02-11T11:17:51.480Z,87.16
2023-02-11T11:20:33.596Z,87.29
2023-02-11T11:23:09.514Z,87.36
2023-02-11T11:25:41.562Z,87.34
2023-02-11T11:28:22.234Z,87.36
2023-02-11T11:30:53.065Z,87.43
2023-02-11T11:33:26.598Z,87.51
2023-02-11T11:35:59.082Z,87.56
2023-02-11T11:38:31.969Z,87.55
2023-02-11T11:41:27.612Z,87.52
2023-02-11T11:44:23.583Z,87.60
2023-02-11T11:47:15.985Z,87.56
2023-02-11T11:50:11.118Z,87.58
2023-02-11T11:52:56.872Z,87.66
2023-02-11T11:55:35.580Z,87.68
2023-02-11T11:58:07.031Z,87.90
2023-02-11T12:00:43.901Z,87.98
2023-02-11T12:03:38.361Z,88.02
2023-02-11T12:06:11.304Z,88.07
2023-02-11T12:09:09.685Z,88.09
2023-02-11T12:11:49.053Z,88.08
2023-02-11T12:14:26.256Z,88.10
2023-02-11T12:17:14.763Z,88.10
2023-02-11T12:19:56.513Z,88.14
2023-02-11T12:22:32.444Z,88.14
2023-02-11T12:25:16.587Z,88.23
2023-02-11T12:27:56.528Z,88.29
2023-02-11T12:30:33.653Z,88.36
2023-02-11T12:33:22.319Z,88.32
2023-02-11T12:36:08.015Z,88.30
2023-02-11T12:38:46.580Z,88.25
2023-02-11T12:41:50.665Z,88.30
2023-02-11T12:44:52.838Z,88.32
2023-02-11T12:47:28.873Z,88.20
2023-02-11T12:50:19.914Z,88.15
2023-02-11T12:53:09.913Z,88.13
2023-02-11T12:55:43.284Z,88.09
2023-02-11T12:58:17.203Z,88.12
2023-02-11T13:00:57.210Z,88.08
2023-02-11T13:03:34.431Z,88.13
2023-02-11T13:06:08.105Z,88.11
2023-02-11T13:08:42.579Z,88.10
2023-02-11T13:11:16.219Z,88.18
2023-02-11T13:14:04.553Z,88.17
2023-02-11T13:16:40.536Z,88.15
2023-02-11T13:19:14.501Z,88.15
2023-02-11T13:22:02.731Z,88.09
2023-02-11T13:24:33.455Z,88.09
2023-02-11T13:27:11.938Z,88.08
2023-02-11T13:30:14.442Z,87.99
2023-02-11T13:33:04.282Z,87.97
2023-02-11T13:36:05.022Z,87.91
2023-02-11T13:38:33.592Z,87.83
2023-02-11T13:41:28.074Z,87.82
2023-02-11T13:44:08.569Z,87.79
2023-02-11T13:47:06.655Z,87.81
2023-02-11T13:49:41.949Z,87.84
2023-02-11T13:52:23.061Z,87.93
2023-02-11T13:54:53.855Z,87.98
2023-02-11T13:57:27.037Z,88.02
2023-02-11T14:00:00.827Z,88.09
2023-02-11T14:02:50.918Z,88.05
2023-02-11T14:05:39.663Z,88.04
2023-02-11T14:08:29.758Z,88.03
2023-02-11T14:11:13.020Z,88.00
2023-02-11T14:13:47.333Z,88.01
2023-02-11T14:16:37.042Z,87.97
2023-02-11T14:19:08.699Z,87.92
2023-02-11T14:21:40.622Z,87.95
2023-02-11T14:24:13.050Z,87.99
2023-02-11T14:26:41.092Z,88.00
2023-02-11T14:29:30.250Z,88.04
2023-02-11T14:32:11.012Z,88.08
2023-02-11T14:34:39.089Z,88.14
2023-02-11T14:37:33.901Z,88.18
2023-02-11T14:40:22.828Z,88.34
2023-02-11T14:42:54.084Z,88.46
2023-02-11T14:45:27.673Z,88.43
2023-02-11T14:48:08.340Z,88.45
2023-02-11T14:50:39.416Z,88.48
2023-02-11T14:53:13.375Z,88.45
2023-02-11T14:55:44.726Z,88.49
2023-02-11T14:58:16.737Z,88.49
2023-02-11T15:01:01.414Z,88.66
2023-02-11T15:03:35.444Z,88.80
2023-02-11T15:06:08.270Z,88.82
2023-02-11T15:08:38.459Z,88.89
2023-02-11T15:11:12.199Z,88.96
2023-02-11T15:13:48.151Z,88.98
2023-02-11T15:16:20.776Z,89.07
2023-02-11T15:18:53.253Z,89.14
2023-02-11T15:21:29.134Z,89.14
2023-02-11T15:24:01.629Z,89.16
2023-02-11T15:26:30.773Z,89.23
2023-02-11T15:28:59.418Z,89.20
2023-02-11T15:31:28.608Z,89.19
2023-02-11T15:34:07.765Z,89.24
2023-02-11T15:36:36.456Z,89.34
2023-02-11T15:39:18.931Z,89.53
2023-02-11T15:41:47.140Z,89.61
2023-02-11T15:44:33.028Z,89.55
2023-02-11T15:47:01.053Z,89.56
2023-02-11T15:49:29.176Z,89.63
2023-02-11T15:51:58.137Z,89.71
2023-02-11T15:54:30.072Z,89.78
2023-02-11T15:57:10.084Z,89.77
2023-02-11T15:59:41.290Z,89.79
2023-02-11T16:02:18.606Z,89.84
2023-02-11T16:05:08.947Z,89.92
2023-02-11T16:07:50.815Z,89.98
2023-02-11T16:10:29.341Z,90.08
2023-02-11T16:13:24.452Z,90.07
2023-02-11T16:15:58.465Z,90.07
2023-02-11T16:18:52.061Z,90.02
2023-02-11T16:21:39.352Z,90.07
2023-02-11T16:24:08.509Z,90.09
2023-02-11T16:26:43.034Z,90.03
2023-02-11T16:29:23.590Z,89.98
2023-02-11T16:31:53.540Z,90.04
2023-02-11T16:34:24.394Z,90.09
2023-02-11T16:36:52.994Z,90.08
2023-02-11T16:39:22.839Z,90.09
2023-02-11T16:41:52.403Z,90.04
2023-02-11T16:44:20.363Z,90.01
2023-02-11T16:46:48.606Z,90.05
2023-02-11T16:49:30.428Z,90.06
2023-02-11T16:52:05.506Z,90.00
2023-02-11T16:54:34.163Z,89.96
2023-02-11T16:57:02.834Z,89.93
2023-02-11T16:59:30.854Z,89.95
2023-02-11T17:01:58.879Z,89.93
2023-02-11T17:04:30.461Z,89.93
2023-02-11T17:06:58.866Z,89.93
2023-02-11T17:09:30.546Z,89.93
2023-02-11T17:11:59.312Z,89.93
2023-02-11T17:14:27.550Z,89.94
2023-02-11T17:16:56.874Z,89.92
2023-02-11T17:19:25.103Z,89.90
2023-02-11T17:21:53.102Z,89.90
2023-02-11T17:24:22.844Z,89.91
2023-02-11T17:26:51.088Z,89.93
2023-02-11T17:29:22.339Z,89.95
2023-02-11T17:31:52.011Z,89.93
2023-02-11T17:34:21.920Z,89.92
2023-02-11T17:36:50.145Z,90.00
2023-02-11T17:39:19.326Z,90.02
2023-02-11T17:41:47.399Z,90.05
2023-02-11T17:44:16.612Z,90.12
2023-02-11T17:46:44.746Z,90.20
2023-02-11T17:49:12.868Z,90.24
2023-02-11T17:51:41.952Z,90.25
2023-02-11T17:54:16.905Z,90.28
2023-02-11T17:56:46.496Z,90.34
2023-02-11T17:59:14.697Z,90.37
2023-02-11T18:01:43.221Z,90.39
2023-02-11T18:04:17.198Z,90.40
2023-02-11T18:06:45.812Z,90.43
2023-02-11T18:09:14.256Z,90.47
2023-02-11T18:11:42.987Z,90.53
2023-02-11T18:14:11.837Z,90.59
2023-02-11T18:16:43.193Z,90.69
2023-02-11T18:19:12.742Z,90.68
2023-02-11T18:21:41.987Z,90.68
2023-02-11T18:24:10.000Z,90.71
2023-02-11T18:26:38.189Z,90.71
2023-02-11T18:29:07.152Z,90.74
2023-02-11T18:31:35.624Z,90.78
2023-02-11T18:34:07.507Z,90.81
2023-02-11T18:36:36.074Z,90.81
2023-02-11T18:39:05.054Z,90.81
2023-02-11T18:41:33.373Z,90.83
2023-02-11T18:44:03.322Z,90.84
2023-02-11T18:46:31.529Z,90.87
2023-02-11T18:48:59.592Z,90.89
2023-02-11T18:51:28.077Z,90.89
2023-02-11T18:53:57.177Z,90.93
2023-02-11T18:56:27.960Z,90.93
2023-02-11T18:58:58.132Z,90.98
2023-02-11T19:04:38.512Z,90.78
2023-02-11T19:07:06.552Z,90.87
2023-02-11T19:09:34.543Z,91.06
2023-02-11T19:12:02.936Z,91.15
2023-02-11T19:14:32.334Z,91.20
2023-02-11T19:17:06.035Z,91.22
2023-02-11T19:19:35.880Z,91.22
2023-02-11T19:22:10.227Z,91.22
2023-02-11T19:24:38.871Z,91.24
2023-02-11T19:27:07.022Z,91.26
2023-02-11T19:29:35.351Z,91.27
2023-02-11T19:32:08.645Z,91.24
2023-02-11T19:34:41.425Z,91.22
2023-02-11T19:37:12.788Z,91.20
2023-02-11T19:39:43.112Z,91.14
2023-02-11T19:42:12.552Z,91.10
2023-02-11T19:44:40.698Z,91.09
2023-02-11T19:47:10.396Z,91.14
2023-02-11T19:49:38.552Z,91.12
2023-02-11T19:52:06.854Z,91.06
2023-02-11T19:54:34.798Z,90.98
2023-02-11T19:57:02.848Z,90.94
2023-02-11T19:59:30.930Z,90.92
2023-02-11T20:01:59.017Z,90.92
2023-02-11T20:04:27.044Z,90.95
2023-02-11T20:06:55.057Z,90.97
2023-02-11T20:09:23.387Z,91.04
2023-02-11T20:11:51.668Z,91.11
2023-02-11T20:14:20.085Z,91.15
2023-02-11T20:16:49.975Z,91.20
2023-02-11T20:19:21.898Z,91.20
2023-02-11T20:21:53.401Z,91.12
2023-02-11T20:24:22.834Z,91.00
2023-02-11T20:26:55.886Z,90.86
2023-02-11T20:29:25.875Z,90.74
2023-02-11T20:31:54.996Z,90.63
2023-02-11T20:34:24.999Z,90.50
2023-02-11T20:36:53.539Z,90.42
2023-02-11T20:39:23.538Z,90.34
2023-02-11T20:41:53.982Z,90.26
2023-02-11T20:44:22.885Z,90.21
2023-02-11T20:46:51.871Z,90.13
2023-02-11T20:49:23.380Z,89.96
2023-02-11T20:51:54.044Z,89.84
2023-02-11T20:54:24.458Z,89.79
2023-02-11T20:56:55.537Z,89.71
2023-02-11T20:59:24.817Z,89.67
2023-02-11T21:01:56.279Z,89.58
2023-02-11T21:04:29.732Z,89.55
2023-02-11T21:07:00.234Z,89.49
2023-02-11T21:09:31.646Z,89.46
2023-02-11T21:12:00.376Z,89.37
2023-02-11T21:14:28.817Z,89.32
2023-02-11T21:16:57.707Z,89.33
2023-02-11T21:19:26.036Z,89.34
2023-02-11T21:21:55.294Z,89.33
2023-02-11T21:24:23.865Z,89.30
2023-02-11T21:26:52.050Z,89.27
2023-02-11T21:29:20.101Z,89.16
2023-02-11T21:31:48.804Z,89.03
2023-02-11T21:34:18.098Z,89.04
2023-02-11T21:36:46.143Z,89.04
2023-02-11T21:39:14.432Z,89.04
2023-02-11T21:41:42.835Z,89.01
2023-02-11T21:44:11.009Z,88.97
2023-02-11T21:46:39.230Z,88.89
2023-02-11T21:49:07.335Z,88.81
2023-02-11T21:51:36.453Z,88.81
2023-02-11T21:54:04.747Z,88.79
2023-02-11T21:56:34.383Z,88.72
2023-02-11T21:59:03.014Z,88.73
2023-02-11T22:01:33.687Z,88.82
2023-02-11T22:04:01.962Z,88.31
2023-02-11T22:06:33.070Z,88.03
2023-02-11T22:09:08.744Z,87.34
2023-02-11T22:11:37.211Z,85.99
2023-02-11T22:14:06.000Z,85.76
2023-02-11T22:16:34.028Z,85.44
2023-02-11T22:19:07.388Z,85.67
2023-02-11T22:21:35.637Z,86.02
2023-02-11T22:24:03.892Z,84.28
2023-02-11T22:26:32.014Z,83.42
2023-02-11T22:29:00.783Z,82.98
2023-02-11T22:31:32.014Z,82.70
2023-02-11T22:34:00.881Z,81.70
2023-02-11T22:36:32.516Z,81.92
2023-02-11T22:39:11.631Z,82.36
2023-02-11T22:41:44.946Z,82.65
2023-02-11T22:44:16.510Z,82.40
2023-02-11T22:46:44.459Z,81.48
2023-02-11T22:49:15.082Z,81.17
2023-02-11T22:51:43.564Z,80.97
2023-02-11T22:54:19.619Z,81.01
2023-02-11T22:56:51.111Z,80.92
2023-02-11T22:59:19.572Z,80.94
2023-02-11T23:01:48.024Z,80.73
2023-02-11T23:04:19.267Z,80.73
2023-02-11T23:06:50.452Z,80.21
2023-02-11T23:09:18.496Z,80.13
2023-02-11T23:11:48.560Z,80.10
2023-02-11T23:14:22.595Z,79.49
2023-02-11T23:16:51.564Z,80.06
2023-02-11T23:19:20.705Z,79.55
2023-02-11T23:21:52.677Z,79.47
2023-02-11T23:24:20.834Z,79.66
2023-02-11T23:26:48.947Z,79.98
2023-02-11T23:29:17.084Z,79.56
2023-02-11T23:31:46.584Z,79.50
2023-02-11T23:34:17.336Z,79.17
2023-02-11T23:36:45.413Z,79.66
2023-02-11T23:39:15.394Z,78.39
2023-02-11T23:41:43.609Z,78.06
2023-02-11T23:44:12.250Z,77.84
2023-02-11T23:46:40.216Z,78.68
2023-02-11T23:49:08.264Z,79.09
2023-02-11T23:51:36.198Z,79.01
2023-02-11T23:54:04.346Z,78.75
2023-02-11T23:56:32.371Z,78.24
2023-02-11T23:59:00.276Z,78.52
